Latest Weather Observations for Perth

IDW60801

Issued at 10:02 pm WST Friday 29 May 2015 (issued every 30 minutes, with the page automatically refreshed every 10 minutes)

About weather observations | Map of weather stations | Latest weather observations for WA | Other Formats
Station Details ID: 009225 Name: PERTH METRO Lat: -31.92 Lon: 115.87 Height: 24.9 m
Data from the previous 72 hours. | See also: Recent months at Perth
Date/Time
WST
Temp
°C
App
Temp
°C
Dew
Point
Rel
Hum
%
Delta-T
°C
Wind Press
QNH
hPa
Press
MSL
hPa
Rain
since 9 am
mm
Dir
 
Spd
km/h
Gust
km/h
Spd
kts
Gust
kts
29/10:00pm 9.2 8.6 7.6 90 0.8 CALM 0 0 0 0 1026.0 1026.0 0.0
29/09:30pm 9.9 9.4 7.8 87 1.0 CALM 0 0 0 0 1026.1 1026.1 0.0
29/09:00pm 10.7 10.3 8.1 84 1.3 CALM 0 0 0 0 1026.1 1026.1 0.0
29/08:30pm 11.7 11.4 8.6 81 1.5 CALM 0 0 0 0 1026.2 1026.2 0.0
29/08:00pm 13.0 11.5 8.5 74 2.2 SSE 6 11 3 6 1026.1 1026.1 0.0
29/07:30pm 12.6 11.3 9.1 79 1.8 SSE 6 9 3 5 1025.8 1025.8 0.0
29/07:00pm 12.5 11.1 8.8 78 1.8 SSE 6 7 3 4 1025.3 1025.2 0.0
29/06:30pm 13.2 12.9 8.7 74 2.3 CALM 0 0 0 0 1024.8 1024.7 0.0
29/06:00pm 14.4 14.1 8.6 68 2.9 CALM 0 0 0 0 1024.3 1024.2 0.0
29/05:30pm 16.3 16.0 8.5 60 4.0 CALM 0 4 0 2 1023.8 1023.7 0.0
29/05:00pm 18.6 16.5 8.3 51 5.3 SSE 9 13 5 7 1023.4 1023.3 0.0
29/04:30pm 19.4 17.8 8.1 48 5.8 SSE 6 11 3 6 1023.3 1023.2 0.0
29/04:00pm 20.1 18.3 8.1 46 6.2 SSE 7 11 4 6 1023.2 1023.1 0.0
29/03:30pm 20.4 18.9 9.0 48 6.0 SSE 7 13 4 7 1023.1 1023.0 0.0
29/03:00pm 20.2 18.5 8.2 46 6.2 SSE 7 15 4 8 1023.1 1023.0 0.0
29/02:30pm 19.8 18.1 8.2 47 6.0 SSE 7 13 4 7 1023.0 1022.9 0.0
29/02:00pm 19.7 17.7 8.7 49 5.7 S 9 13 5 7 1023.1 1023.0 0.0
29/01:30pm 19.3 17.3 8.6 50 5.5 ESE 9 17 5 9 1023.5 1023.4 0.0
29/01:00pm 18.8 17.2 8.7 52 5.2 E 7 13 4 7 1023.9 1023.8 0.0
29/12:30pm 18.2 16.6 8.7 54 4.9 E 7 13 4 7 1024.3 1024.2 0.0
29/12:00pm 17.6 15.7 9.0 57 4.4 ESE 9 17 5 9 1024.7 1024.6 0.0
29/11:30am 16.5 15.0 9.0 61 3.9 SE 7 13 4 7 1025.2 1025.1 0.0
29/11:00am 15.3 12.9 8.5 64 3.4 E 11 17 6 9 1025.8 1025.8 0.0
29/10:30am 14.9 12.8 8.4 65 3.3 ESE 9 15 5 8 1026.3 1026.3 0.0
29/10:00am 14.2 11.8 8.6 69 2.8 ESE 11 20 6 11 1026.4 1026.4 0.0
29/09:30am 13.5 11.5 8.6 72 2.4 E 9 17 5 9 1026.6 1026.6 0.0
29/09:00am 12.4 10.2 7.7 73 2.3 E 9 20 5 11 1026.6 1026.6 0.0
29/08:30am 11.3 9.0 7.6 78 1.8 ENE 9 19 5 10 1026.6 1026.6 0.0
29/08:00am 10.1 7.7 7.2 82 1.4 E 9 17 5 9 1026.5 1026.5 0.0
29/07:30am 8.8 6.8 6.9 88 0.9 ENE 7 13 4 7 1026.1 1026.1 0.0
29/07:00am 8.9 6.8 6.7 86 1.0 E 7 13 4 7 1026.0 1026.0 0.0
29/06:30am 8.8 6.3 6.6 86 1.0 E 9 15 5 8 1025.8 1025.8 0.0
29/06:00am 8.9 6.8 6.5 85 1.1 E 7 17 4 9 1025.6 1025.6 0.0
29/05:30am 9.1 7.0 6.7 85 1.1 ENE 7 13 4 7 1025.4 1025.3 0.0
29/05:00am 9.0 6.8 6.4 84 1.2 E 7 15 4 8 1025.5 1025.5 0.0
29/04:30am 8.8 6.6 6.1 83 1.2 ESE 7 13 4 7 1025.3 1025.2 0.0
29/04:00am 8.9 6.4 6.5 85 1.1 ESE 9 15 5 8 1025.2 1025.1 0.0
29/03:30am 7.2 5.1 6.5 95 0.3 ESE 7 11 4 6 1025.2 1025.1 0.0
29/03:00am 4.8 2.4 4.2 96 0.3 ESE 6 7 3 4 1025.3 1025.2 0.0
29/02:30am 5.0 3.8 4.4 96 0.3 CALM 0 0 0 0 1025.3 1025.2 0.0
29/02:00am 5.2 4.0 4.6 96 0.3 CALM 0 0 0 0 1025.2 1025.1 0.0
29/01:30am 5.4 4.2 4.8 96 0.3 CALM 0 0 0 0 1025.2 1025.1 0.0
29/01:00am 5.6 4.5 5.0 96 0.3 CALM 0 0 0 0 1025.3 1025.2 0.0
29/12:30am 5.7 4.6 5.0 95 0.3 CALM 0 0 0 0 1025.3 1025.2 0.0
29/12:00am 5.9 4.8 5.0 94 0.4 CALM 0 0 0 0 1025.4 1025.3 0.0
 
Date/Time
WST
Temp
°C
App
Temp
°C
Dew
Point
Rel
Hum
%
Delta-T
°C
Wind Press
QNH
hPa
Press
MSL
hPa
Rain
since 9 am
mm
Dir
 
Spd
km/h
Gust
km/h
Spd
kts
Gust
kts
28/11:30pm 6.3 5.3 5.4 94 0.4 CALM 0 0 0 0 1025.4 1025.3 0.0
28/11:00pm 6.7 5.7 5.7 93 0.4 CALM 0 0 0 0 1025.3 1025.2 0.0
28/10:30pm 7.2 6.3 6.1 93 0.5 CALM 0 0 0 0 1025.3 1025.2 0.0
28/10:00pm 7.7 6.9 6.5 92 0.5 CALM 0 0 0 0 1025.4 1025.3 0.0
28/09:30pm 8.3 7.6 6.9 91 0.7 CALM 0 0 0 0 1025.3 1025.2 0.0
28/09:00pm 8.8 8.2 7.3 90 0.7 CALM 0 0 0 0 1025.0 1024.9 0.0
28/08:30pm 9.1 8.5 7.4 89 0.8 CALM 0 0 0 0 1024.8 1024.7 0.0
28/08:00pm 9.4 8.7 7.0 85 1.1 CALM 0 0 0 0 1024.3 1024.2 0.0
28/07:30pm 10.4 9.9 7.8 84 1.3 CALM 0 0 0 0 1024.1 1024.0 0.0
28/07:00pm 10.9 10.4 8.0 82 1.4 CALM 0 0 0 0 1023.8 1023.7 0.0
28/06:30pm 11.5 11.1 8.2 80 1.6 CALM 0 0 0 0 1023.4 1023.3 0.0
28/06:00pm 12.4 11.8 7.5 72 2.4 CALM 0 0 0 0 1023.2 1023.1 0.0
28/05:30pm 14.1 13.5 7.6 65 3.2 CALM 0 0 0 0 1022.9 1022.8 0.0
28/05:00pm 16.4 15.3 6.8 53 4.7 ESE 2 7 1 4 1022.8 1022.7 0.0
28/04:30pm 17.5 15.8 6.1 47 5.6 E 4 7 2 4 1022.7 1022.6 0.0
28/04:00pm 18.1 15.5 6.3 46 5.8 E 9 13 5 7 1022.7 1022.6 0.0
28/03:30pm 18.0 15.8 6.2 46 5.8 E 7 13 4 7 1022.7 1022.6 0.0
28/03:00pm 18.5 16.0 6.7 46 5.9 E 9 24 5 13 1022.6 1022.5 0.0
28/02:30pm 18.1 15.6 6.6 47 5.7 ENE 9 17 5 9 1022.7 1022.6 0.0
28/02:00pm 18.3 15.8 6.5 46 5.8 ESE 9 20 5 11 1022.7 1022.6 0.0
28/01:30pm 18.3 16.2 8.3 52 5.1 E 9 17 5 9 1022.9 1022.8 0.0
28/01:00pm 17.3 15.0 7.4 52 4.9 ESE 9 17 5 9 1023.3 1023.2 0.0
28/12:30pm 16.9 15.2 7.5 54 4.7 NNE 6 13 3 7 1023.6 1023.5 0.0
28/12:00pm 16.4 14.5 7.6 56 4.4 E 7 15 4 8 1024.0 1023.9 0.0
28/11:30am 17.0 14.9 8.2 56 4.5 E 9 17 5 9 1024.4 1024.3 0.0
28/11:00am 15.4 13.3 8.2 62 3.6 ENE 9 20 5 11 1024.6 1024.5 0.0
28/10:30am 14.5 12.0 8.0 65 3.2 E 11 19 6 10 1024.7 1024.6 0.0
28/10:00am 13.4 13.1 8.5 72 2.4 CALM 0 0 0 0 1024.8 1024.7 0.0
28/09:30am 11.8 11.4 8.1 78 1.8 CALM 0 0 0 0 1024.8 1024.7 0.0
28/09:00am 10.0 9.4 7.6 85 1.1 CALM 0 0 0 0 1024.6 1024.5 0.0
28/08:30am 8.3 7.6 7.1 92 0.6 CALM 0 0 0 0 1024.4 1024.3 0.0
28/08:00am 6.5 5.6 6.2 98 0.1 CALM 0 0 0 0 1024.1 1024.0 0.0
28/07:30am 4.8 3.6 4.5 98 0.1 CALM 0 0 0 0 1023.9 1023.8 0.0
28/07:00am 3.9 2.5 3.5 97 0.2 CALM 0 0 0 0 1023.6 1023.5 0.0
28/06:30am 3.8 2.3 3.2 96 0.2 CALM 0 0 0 0 1023.2 1023.1 0.0
28/06:00am 3.8 2.3 3.2 96 0.2 CALM 0 0 0 0 1022.8 1022.7 0.0
28/05:30am 4.2 2.8 3.6 96 0.2 CALM 0 0 0 0 1022.6 1022.5 0.0
28/05:00am 4.6 2.1 4.0 96 0.3 S 6 7 3 4 1022.4 1022.3 0.0
28/04:30am 4.5 3.2 3.9 96 0.3 CALM 0 0 0 0 1022.1 1022.0 0.0
28/04:00am 4.6 3.3 4.0 96 0.3 CALM 0 0 0 0 1022.1 1022.0 0.0
28/03:30am 4.9 3.6 4.2 95 0.3 CALM 0 0 0 0 1022.2 1022.1 0.0
28/03:00am 5.0 3.7 4.3 95 0.3 CALM 0 0 0 0 1022.3 1022.2 0.0
28/02:30am 5.3 4.1 4.4 94 0.4 CALM 0 0 0 0 1022.5 1022.4 0.0
28/02:00am 5.6 4.4 4.7 94 0.4 CALM 0 0 0 0 1022.3 1022.2 0.0
28/01:30am 6.0 4.9 5.1 94 0.4 CALM 0 0 0 0 1022.3 1022.2 0.0
28/01:00am 5.9 4.8 4.9 93 0.4 CALM 0 0 0 0 1022.3 1022.2 0.0
28/12:30am 6.3 5.2 5.1 92 0.5 CALM 0 0 0 0 1022.6 1022.5 0.0
28/12:00am 6.9 5.9 5.5 91 0.6 CALM 0 0 0 0 1022.7 1022.6 0.0
 
Date/Time
WST
Temp
°C
App
Temp
°C
Dew
Point
Rel
Hum
%
Delta-T
°C
Wind Press
QNH
hPa
Press
MSL
hPa
Rain
since 9 am
mm
Dir
 
Spd
km/h
Gust
km/h
Spd
kts
Gust
kts
27/11:30pm 7.2 6.2 5.7 90 0.7 CALM 0 6 0 3 1022.7 1022.6 0.0
27/11:00pm 7.6 5.3 5.9 89 0.8 S 7 9 4 5 1022.7 1022.6 0.0
27/10:30pm 7.6 6.7 6.1 90 0.7 CALM 0 0 0 0 1022.9 1022.8 0.0
27/10:00pm 7.7 6.7 5.8 88 0.9 CALM 0 0 0 0 1022.8 1022.7 0.0
27/09:30pm 8.3 7.5 6.3 87 0.9 CALM 0 0 0 0 1022.9 1022.8 0.0
27/09:00pm 8.8 7.9 6.2 84 1.2 CALM 0 0 0 0 1022.8 1022.7 0.0
27/08:30pm 9.4 8.6 6.3 81 1.4 CALM 0 0 0 0 1022.7 1022.6 0.0
27/08:00pm 10.3 9.5 6.3 76 1.9 CALM 0 0 0 0 1022.5 1022.4 0.0
27/07:30pm 11.7 10.8 6.0 68 2.7 CALM 0 6 0 3 1022.4 1022.3 0.0
27/07:00pm 13.5 11.4 5.9 60 3.6 S 6 11 3 6 1022.0 1021.9 0.0
27/06:30pm 14.3 12.0 5.9 57 4.0 S 7 11 4 6 1021.6 1021.5 0.0
27/06:00pm 15.1 12.5 5.9 54 4.4 S 9 13 5 7 1021.3 1021.2 0.0
27/05:30pm 15.6 12.5 5.5 51 4.8 SSW 11 15 6 8 1021.2 1021.1 0.0
27/05:00pm 16.0 13.0 5.9 51 4.9 S 11 19 6 10 1021.1 1021.0 0.0
27/04:30pm 17.0 13.2 5.9 48 5.4 SSE 15 20 8 11 1021.0 1020.9 0.0
27/04:00pm 17.7 14.4 6.3 47 5.6 SSW 13 24 7 13 1021.0 1020.9 0.0
27/03:30pm 17.7 14.0 6.3 47 5.6 SSE 15 22 8 12 1021.0 1020.9 0.0
27/03:00pm 17.6 13.6 6.5 48 5.5 SSE 17 26 9 14 1021.1 1021.0 0.0
27/02:30pm 17.5 13.8 6.4 48 5.5 S 15 32 8 17 1021.2 1021.1 0.0
27/02:00pm 18.0 14.3 6.5 47 5.7 S 15 26 8 14 1021.3 1021.2 0.0
27/01:30pm 17.5 13.5 6.7 49 5.4 SSE 17 24 9 13 1021.5 1021.4 0.0
27/01:00pm 18.3 15.1 6.8 47 5.7 SSE 13 22 7 12 1021.8 1021.7 0.0
27/12:30pm 17.7 14.0 6.3 47 5.6 SSE 15 22 8 12 1022.2 1022.1 0.0
27/12:00pm 17.8 14.7 7.2 50 5.3 SSE 13 22 7 12 1022.7 1022.6 0.0
27/11:30am 17.3 14.2 7.1 51 5.1 SSE 13 20 7 11 1023.2 1023.1 0.0
27/11:00am 16.7 13.5 6.8 52 4.9 SE 13 20 7 11 1023.4 1023.3 0.0
27/10:30am 16.2 14.3 7.7 57 4.3 E 7 13 4 7 1023.9 1023.8 0.0
27/10:00am 15.7 14.2 9.1 65 3.4 E 7 13 4 7 1024.3 1024.2 0.0
27/09:30am 14.0 12.3 8.4 69 2.8 SE 7 13 4 7 1024.3 1024.2 0.0
27/09:00am 12.9 12.2 9.9 82 1.5 SW 4 9 2 5 1024.2 1024.1 0.0
27/08:30am 10.8 10.3 9.4 91 0.7 SW 2 9 1 5 1024.1 1024.0 0.0
27/08:00am 9.5 9.3 8.9 96 0.3 CALM 0 0 0 0 1023.9 1023.8 0.0
27/07:30am 9.6 9.5 9.3 98 0.1 CALM 0 0 0 0 1023.7 1023.6 0.0
27/07:00am 9.3 9.1 9.0 98 0.1 CALM 0 0 0 0 1023.4 1023.3 0.0
27/06:30am 9.1 8.8 8.8 98 0.1 CALM 0 0 0 0 1023.3 1023.2 0.0
27/06:00am 8.2 7.7 7.9 98 0.1 CALM 0 0 0 0 1022.9 1022.8 0.0
27/05:30am 7.5 6.8 7.1 97 0.2 CALM 0 0 0 0 1022.6 1022.5 0.0
27/05:00am 7.9 7.3 7.5 97 0.2 CALM 0 0 0 0 1022.5 1022.4 0.0
27/04:30am 8.2 7.7 7.8 97 0.2 CALM 0 0 0 0 1022.6 1022.5 0.0
27/04:00am 8.3 7.8 7.7 96 0.3 CALM 0 0 0 0 1022.6 1022.5 0.0
27/03:30am 8.8 8.4 8.4 97 0.2 CALM 0 0 0 0 1022.8 1022.7 0.0
27/03:00am 9.5 9.3 9.0 97 0.2 CALM 0 0 0 0 1022.8 1022.7 0.0
27/02:30am 9.7 9.5 9.2 97 0.2 CALM 0 0 0 0 1022.8 1022.7 0.0
27/02:00am 9.6 9.4 9.0 96 0.3 CALM 0 0 0 0 1023.1 1023.0 0.0
27/01:30am 9.4 9.1 8.6 95 0.4 CALM 0 0 0 0 1022.9 1022.8 0.0
27/01:00am 10.1 10.0 9.3 95 0.4 CALM 0 0 0 0 1023.0 1022.9 0.0
27/12:30am 10.4 10.3 9.5 94 0.5 CALM 0 0 0 0 1023.0 1022.9 0.0
27/12:00am 11.5 11.0 10.6 94 0.5 SW 4 7 2 4 1023.1 1023.0 0.0
 
Date/Time
WST
Temp
°C
App
Temp
°C
Dew
Point
Rel
Hum
%
Delta-T
°C
Wind Press
QNH
hPa
Press
MSL
hPa
Rain
since 9 am
mm
Dir
 
Spd
km/h
Gust
km/h
Spd
kts
Gust
kts
26/11:30pm 11.6 10.7 10.8 95 0.4 SW 6 7 3 4 1023.1 1023.0 0.0
26/11:00pm 11.9 12.3 11.1 95 0.4 CALM 0 0 0 0 1023.5 1023.4 0.0
26/10:30pm 11.5 11.7 10.7 95 0.4 CALM 0 0 0 0 1023.7 1023.6 0.0

Other Formats:

Comma delimited format used in spreadsheet applications
http://www.bom.gov.au/fwo/IDW60801/IDW60801.94608.axf

JavaScript Object Notation format (JSON) in row-major order
http://www.bom.gov.au/fwo/IDW60801/IDW60801.94608.json